createdAt,value
2022-12-04T06:36:53.166Z,101124.97
2022-12-04T06:41:55.194Z,101127.47
2022-12-04T06:47:00.736Z,101140.69
2022-12-04T06:52:03.918Z,101124.31
2022-12-04T06:57:05.971Z,101132.91
2022-12-04T07:02:09.492Z,101125.53
2022-12-04T07:07:11.742Z,101103.09
2022-12-04T07:12:13.786Z,101123.34
2022-12-04T07:17:15.909Z,101131.94
2022-12-04T07:22:17.966Z,101126.69
2022-12-04T07:27:19.979Z,101130.66
2022-12-04T07:32:22.001Z,101126.59
2022-12-04T07:37:24.031Z,101132.72
2022-12-04T07:42:26.025Z,101138.34
2022-12-04T07:47:28.001Z,101143.41
2022-12-04T07:52:30.118Z,101118.56
2022-12-04T07:57:32.134Z,101139.72
2022-12-04T08:02:34.145Z,101141.41
2022-12-04T08:07:36.152Z,101138.66
2022-12-04T08:12:38.193Z,101113.34
2022-12-04T08:17:40.218Z,101134.44
2022-12-04T08:22:42.380Z,101132.22
2022-12-04T08:27:47.745Z,101135.53
2022-12-04T08:32:50.191Z,101129.31
2022-12-04T08:37:52.238Z,101113.09
2022-12-04T08:42:54.273Z,101127.88
2022-12-04T08:47:56.303Z,101131.50
2022-12-04T08:52:58.740Z,101119.50
2022-12-04T08:58:00.753Z,101139.63
2022-12-04T09:03:02.834Z,101133.28
2022-12-04T09:08:06.144Z,101142.66
2022-12-04T09:13:08.698Z,101123.38
2022-12-04T09:18:10.703Z,101120.06
2022-12-04T09:23:12.697Z,101127.16
2022-12-04T09:28:14.725Z,101121.50
2022-12-04T09:33:16.724Z,101125.81
2022-12-04T09:38:18.889Z,101108.75
2022-12-04T09:43:59.869Z,101102.47
2022-12-04T09:49:11.555Z,101100.72
2022-12-04T09:54:17.910Z,101088.34
2022-12-04T09:59:24.531Z,101087.72
2022-12-04T10:04:26.673Z,101090.38
2022-12-04T10:09:40.236Z,101086.09
2022-12-04T10:14:46.550Z,101067.34
2022-12-04T10:20:08.945Z,101067.94
2022-12-04T10:25:22.240Z,101064.25
2022-12-04T10:30:27.392Z,101052.62
2022-12-04T10:35:32.330Z,101042.66
2022-12-04T10:40:56.787Z,101041.41
2022-12-04T10:45:59.005Z,101049.50
2022-12-04T10:51:01.113Z,101035.22
2022-12-04T10:56:14.775Z,101043.50
2022-12-04T11:01:16.827Z,101029.47
2022-12-04T11:06:25.269Z,101006.53
2022-12-04T11:11:30.920Z,101001.00
2022-12-04T11:16:40.644Z,100985.63
2022-12-04T11:21:42.752Z,100990.66
2022-12-04T11:26:47.700Z,100984.69
2022-12-04T11:31:53.179Z,100972.72
2022-12-04T11:36:57.134Z,100965.47
2022-12-04T11:42:04.968Z,100965.38
2022-12-04T11:47:18.305Z,100959.56
2022-12-04T11:52:38.943Z,100943.22
2022-12-04T11:57:48.219Z,100935.25
2022-12-04T12:03:19.678Z,100938.75
2022-12-04T12:08:45.911Z,100923.88
2022-12-04T12:14:18.853Z,100915.81
2022-12-04T12:19:33.499Z,100919.81
2022-12-04T12:24:51.349Z,100919.84
2022-12-04T12:30:06.012Z,100912.72
2022-12-04T12:35:22.712Z,100907.97
2022-12-04T12:40:41.685Z,100908.34
2022-12-04T12:45:49.698Z,100910.12
2022-12-04T12:51:22.038Z,100920.53
2022-12-04T12:56:31.482Z,100899.69
2022-12-04T13:02:10.807Z,100906.50
2022-12-04T13:07:19.824Z,100905.59
2022-12-04T13:12:23.811Z,100890.75
2022-12-04T13:17:37.314Z,100891.66
2022-12-04T13:23:10.998Z,100894.50
2022-12-04T13:28:26.422Z,100896.62
2022-12-04T13:33:37.393Z,100900.16
2022-12-04T13:39:19.060Z,100910.28
2022-12-04T13:44:24.111Z,100914.59
2022-12-04T13:49:32.119Z,100919.50
2022-12-04T13:54:36.596Z,100900.38
2022-12-04T13:59:40.065Z,100896.75
2022-12-04T14:04:53.158Z,100912.78
2022-12-04T14:09:57.630Z,100919.16
2022-12-04T14:15:04.859Z,100923.12
2022-12-04T14:20:21.682Z,100926.03
2022-12-04T14:25:34.829Z,100925.28
2022-12-04T14:30:39.301Z,100923.84
2022-12-04T14:36:24.743Z,100919.75
2022-12-04T14:41:27.294Z,100928.97
2022-12-04T14:46:39.337Z,100920.50
2022-12-04T14:51:54.370Z,100929.88
2022-12-04T14:57:24.266Z,100927.38
2022-12-04T15:02:34.464Z,100922.28
2022-12-04T15:07:37.088Z,100930.38
2022-12-04T15:12:49.350Z,100941.22
2022-12-04T15:18:05.265Z,100941.41
2022-12-04T15:23:11.942Z,100942.47
2022-12-04T15:28:31.296Z,100934.25
2022-12-04T15:33:37.430Z,100932.22
2022-12-04T15:38:40.527Z,100940.59
2022-12-04T15:43:43.971Z,100936.28
2022-12-04T15:48:48.014Z,100963.69
2022-12-04T15:53:50.241Z,100959.78
2022-12-04T15:59:00.160Z,100958.34
2022-12-04T16:04:02.290Z,100962.09
2022-12-04T16:09:22.540Z,100951.50
2022-12-04T16:14:24.608Z,100950.09
2022-12-04T16:19:33.961Z,100947.84
2022-12-04T16:24:35.991Z,100959.28
2022-12-04T16:29:38.045Z,100954.53
2022-12-04T16:34:40.370Z,100938.78
2022-12-04T16:39:42.475Z,100952.09
2022-12-04T16:44:45.235Z,100947.97
2022-12-04T16:49:49.866Z,100945.28
2022-12-04T16:54:51.998Z,100951.50
2022-12-04T16:59:54.164Z,100951.31
2022-12-04T17:04:58.027Z,100946.75
2022-12-04T17:10:00.347Z,100945.31
2022-12-04T17:15:02.381Z,100948.84
2022-12-04T17:20:11.527Z,100954.69
2022-12-04T17:25:14.157Z,100955.31
2022-12-04T17:30:16.445Z,100971.06
2022-12-04T17:35:18.609Z,100958.25
2022-12-04T17:40:20.707Z,100959.91
2022-12-04T17:45:22.782Z,100965.09
2022-12-04T17:50:24.801Z,100975.44
2022-12-04T17:55:26.778Z,100978.16
2022-12-04T18:00:28.775Z,100972.75
2022-12-04T18:05:30.941Z,100961.97
2022-12-04T18:10:34.823Z,100953.69
2022-12-04T18:15:36.826Z,100961.78
2022-12-04T18:20:39.099Z,100972.75
2022-12-04T18:25:41.144Z,100980.22
2022-12-04T18:30:43.219Z,100978.59
2022-12-04T18:35:54.375Z,100981.50
2022-12-04T18:41:01.300Z,100976.75
2022-12-04T18:46:07.903Z,100997.72
2022-12-04T18:51:34.858Z,101000.41
2022-12-04T18:56:37.239Z,100998.34
2022-12-04T19:01:39.992Z,100996.28
2022-12-04T19:06:45.223Z,100982.59
2022-12-04T19:11:47.402Z,100983.41
2022-12-04T19:16:49.941Z,100991.31
2022-12-04T19:21:52.010Z,100994.44
2022-12-04T19:26:54.168Z,100991.50
2022-12-04T19:31:59.206Z,100995.50
2022-12-04T19:37:02.424Z,100990.53
2022-12-04T19:42:04.508Z,100986.81
2022-12-04T19:47:07.070Z,100993.88
2022-12-04T19:52:09.132Z,100995.94
2022-12-04T19:57:11.257Z,100982.72
2022-12-04T20:02:13.997Z,101005.72
2022-12-04T20:07:16.758Z,100985.81
2022-12-04T20:12:18.807Z,100993.66
2022-12-04T20:17:20.815Z,100988.53
2022-12-04T20:22:22.948Z,101004.91
2022-12-04T20:27:24.965Z,101010.09
2022-12-04T20:32:26.975Z,101014.69
2022-12-04T20:37:28.998Z,101016.75
2022-12-04T20:42:33.585Z,101017.38
2022-12-04T20:47:36.482Z,101009.94
2022-12-04T20:52:38.534Z,101021.97
2022-12-04T20:57:40.560Z,101019.31
2022-12-04T21:02:43.612Z,101029.03
2022-12-04T21:07:45.698Z,101026.34
2022-12-04T21:13:06.501Z,101025.09
2022-12-04T21:18:08.676Z,101012.87
2022-12-04T21:23:10.764Z,100998.16
2022-12-04T21:28:12.798Z,101019.50
2022-12-04T21:33:14.830Z,101027.37
2022-12-04T21:38:16.855Z,101015.16
2022-12-04T21:43:18.856Z,101022.19
2022-12-04T21:48:20.854Z,101034.22
